createdAt,value
2018-06-12T00:02:23.714Z,59.20
2018-06-12T00:04:51.260Z,59.30
2018-06-12T00:07:18.857Z,59.30
2018-06-12T00:09:46.397Z,59.30
2018-06-12T00:12:13.953Z,59.20
2018-06-12T00:14:41.520Z,59.30
2018-06-12T00:17:09.082Z,59.30
2018-06-12T00:19:36.629Z,59.20
2018-06-12T00:22:04.217Z,59.10
2018-06-12T00:26:59.061Z,59.20
2018-06-12T00:29:26.617Z,59.30
2018-06-12T00:31:54.207Z,58.80
2018-06-12T00:34:21.833Z,58.80
2018-06-12T00:36:49.377Z,58.90
2018-06-12T00:39:16.932Z,58.80
2018-06-12T00:41:44.467Z,58.40
2018-06-12T00:44:12.038Z,58.40
2018-06-12T00:46:39.627Z,58.50
2018-06-12T00:49:07.196Z,58.50
2018-06-12T00:51:34.753Z,58.30
2018-06-12T00:54:02.365Z,58.50
2018-06-12T00:56:35.629Z,58.50
2018-06-12T00:59:03.233Z,58.20
2018-06-12T01:01:34.705Z,58.40
2018-06-12T01:04:02.350Z,58.20
2018-06-12T01:06:29.953Z,58.20
2018-06-12T01:08:57.519Z,58.30
2018-06-12T01:11:26.103Z,58.20
2018-06-12T01:13:53.727Z,58.30
2018-06-12T01:16:21.307Z,58.30
2018-06-12T01:18:50.676Z,58.30
2018-06-12T01:21:18.226Z,58.40
2018-06-12T01:23:45.805Z,58.50
2018-06-12T01:26:13.344Z,58.40
2018-06-12T01:28:40.936Z,58.40
2018-06-12T01:31:08.528Z,58.30
2018-06-12T01:33:42.873Z,58.30
2018-06-12T01:36:10.421Z,58.50
2018-06-12T01:38:38.001Z,58.50
2018-06-12T01:41:05.578Z,58.90
2018-06-12T01:43:33.141Z,58.40
2018-06-12T01:46:00.765Z,58.10
2018-06-12T01:48:28.357Z,58.10
2018-06-12T01:50:55.930Z,58.10
2018-06-12T01:53:23.477Z,58.10
2018-06-12T01:55:51.019Z,58.00
2018-06-12T01:58:18.715Z,57.90
2018-06-12T02:00:46.326Z,58.10
2018-06-12T02:03:13.872Z,57.80
2018-06-12T02:05:41.446Z,57.80
2018-06-12T02:08:08.992Z,57.80
2018-06-12T02:10:36.553Z,57.90
2018-06-12T02:13:04.110Z,57.80
2018-06-12T02:15:31.665Z,57.70
2018-06-12T02:17:59.245Z,57.80
2018-06-12T02:20:26.802Z,57.60
2018-06-12T02:22:55.464Z,57.60
2018-06-12T02:25:23.180Z,57.80
2018-06-12T02:27:50.739Z,57.60
2018-06-12T02:30:18.258Z,57.70
2018-06-12T02:32:45.821Z,57.70
2018-06-12T02:35:13.376Z,57.80
2018-06-12T02:37:40.997Z,57.70
2018-06-12T02:40:08.638Z,57.80
2018-06-12T02:42:36.264Z,57.50
2018-06-12T02:45:03.820Z,57.60
2018-06-12T02:47:31.401Z,57.80
2018-06-12T02:49:59.141Z,57.50
2018-06-12T02:52:26.742Z,57.60
2018-06-12T02:54:54.307Z,58.30
2018-06-12T02:57:21.867Z,57.70
2018-06-12T02:59:49.481Z,57.80
2018-06-12T03:04:44.443Z,57.80
2018-06-12T03:07:12.029Z,57.70
2018-06-12T03:09:39.613Z,57.70
2018-06-12T03:12:07.195Z,57.80
2018-06-12T03:14:34.761Z,57.80
2018-06-12T03:17:02.310Z,58.50
2018-06-12T03:19:31.979Z,58.00
2018-06-12T03:21:59.538Z,58.10
2018-06-12T03:24:27.136Z,58.00
2018-06-12T03:26:54.742Z,58.00
2018-06-12T03:29:22.486Z,58.20
2018-06-12T03:31:50.007Z,58.20
2018-06-12T03:34:17.589Z,58.30
2018-06-12T03:36:45.146Z,58.40
2018-06-12T03:39:12.701Z,58.50
2018-06-12T03:41:40.268Z,58.50
2018-06-12T03:44:08.518Z,58.50
2018-06-12T03:46:36.117Z,58.50
2018-06-12T03:49:03.737Z,58.70
2018-06-12T03:53:58.666Z,58.70
2018-06-12T03:56:26.230Z,58.70
2018-06-12T03:58:53.785Z,58.70
2018-06-12T04:01:21.399Z,58.80
2018-06-12T04:03:48.900Z,58.70
2018-06-12T04:06:16.425Z,59.00
2018-06-12T04:08:43.985Z,58.80
2018-06-12T04:11:11.573Z,58.90
2018-06-12T04:13:39.216Z,59.00
2018-06-12T04:16:06.810Z,58.90
2018-06-12T04:18:34.720Z,59.60
2018-06-12T04:21:06.157Z,58.50
2018-06-12T04:23:33.750Z,55.60
2018-06-12T04:26:01.324Z,55.10
2018-06-12T04:28:28.928Z,55.00
2018-06-12T04:30:56.516Z,54.90
2018-06-12T04:33:24.255Z,54.70
2018-06-12T04:35:51.894Z,54.90
2018-06-12T04:38:19.433Z,55.40
2018-06-12T04:40:47.014Z,56.20
2018-06-12T04:43:15.466Z,56.30
2018-06-12T04:45:43.096Z,55.90
2018-06-12T04:50:55.632Z,55.30
2018-06-12T04:53:23.204Z,55.30
2018-06-12T04:55:51.086Z,55.60
2018-06-12T04:58:18.878Z,56.00
2018-06-12T05:00:46.784Z,55.80
2018-06-12T05:03:14.394Z,56.40
2018-06-12T05:05:41.990Z,57.00
2018-06-12T05:08:09.626Z,56.70
2018-06-12T05:10:37.195Z,57.20
2018-06-12T05:13:05.126Z,57.20
2018-06-12T05:15:32.824Z,57.20
2018-06-12T05:18:00.345Z,57.00
2018-06-12T05:20:27.901Z,57.00
2018-06-12T05:22:55.460Z,56.90
2018-06-12T05:25:23.036Z,56.70
2018-06-12T05:27:50.582Z,56.70
2018-06-12T05:30:18.098Z,56.60
2018-06-12T05:32:45.640Z,56.60
2018-06-12T05:35:13.197Z,56.30
2018-06-12T05:37:40.821Z,56.60
2018-06-12T05:40:08.393Z,56.50
2018-06-12T05:42:38.057Z,56.60
2018-06-12T05:45:05.605Z,56.60
2018-06-12T05:47:33.150Z,56.30
2018-06-12T05:50:00.705Z,56.50
2018-06-12T05:52:28.235Z,56.40
2018-06-12T05:54:55.765Z,56.40
2018-06-12T05:57:23.356Z,56.60
2018-06-12T05:59:50.918Z,56.60
2018-06-12T06:02:20.498Z,56.70
2018-06-12T06:04:48.069Z,56.80
2018-06-12T06:07:15.827Z,56.70
2018-06-12T06:09:43.554Z,56.60
2018-06-12T06:12:11.264Z,56.70
2018-06-12T06:14:38.954Z,56.70
2018-06-12T06:17:06.790Z,56.70
2018-06-12T06:19:34.519Z,56.60
2018-06-12T06:22:02.353Z,56.60
2018-06-12T06:24:30.169Z,56.60
2018-06-12T06:26:57.882Z,56.50
2018-06-12T06:29:25.679Z,56.50
2018-06-12T06:31:53.425Z,56.60
2018-06-12T06:34:21.323Z,56.50
2018-06-12T06:36:49.098Z,56.50
2018-06-12T06:39:16.874Z,56.50
2018-06-12T06:41:44.582Z,56.50
2018-06-12T06:44:12.351Z,56.50
2018-06-12T06:46:40.129Z,56.40
2018-06-12T06:49:07.833Z,56.50
2018-06-12T06:51:35.528Z,57.10
2018-06-12T06:54:03.434Z,56.40
2018-06-12T06:56:31.181Z,56.40
2018-06-12T07:01:26.460Z,56.40
2018-06-12T07:03:54.220Z,56.30
2018-06-12T07:06:22.029Z,56.20
2018-06-12T07:08:49.717Z,56.20
2018-06-12T07:11:17.407Z,56.20
2018-06-12T07:13:45.359Z,56.20
2018-06-12T07:16:13.105Z,56.10
2018-06-12T07:18:40.896Z,56.20
2018-06-12T07:21:12.693Z,56.20
2018-06-12T07:23:40.376Z,56.80
2018-06-12T07:26:08.141Z,56.00
2018-06-12T07:28:35.922Z,56.00
2018-06-12T07:31:03.742Z,56.10
2018-06-12T07:33:31.422Z,56.00
2018-06-12T07:35:59.133Z,56.00
2018-06-12T07:38:26.885Z,56.00
2018-06-12T07:40:54.660Z,55.90
2018-06-12T07:43:22.406Z,56.00
2018-06-12T07:45:50.140Z,56.00
2018-06-12T07:48:17.860Z,55.70
2018-06-12T07:50:45.595Z,55.90
2018-06-12T07:53:13.343Z,55.90
2018-06-12T07:55:41.154Z,55.80
2018-06-12T07:58:08.886Z,55.70
2018-06-12T08:00:36.660Z,55.80
2018-06-12T08:03:04.508Z,55.70
2018-06-12T08:05:32.343Z,55.60
2018-06-12T08:08:00.247Z,55.60
2018-06-12T08:10:28.161Z,55.40
2018-06-12T08:12:56.003Z,55.40
2018-06-12T08:15:23.804Z,55.50
2018-06-12T08:17:51.602Z,55.50
2018-06-12T08:20:19.374Z,55.40
2018-06-12T08:22:47.165Z,55.30
2018-06-12T08:25:15.021Z,55.40
2018-06-12T08:27:43.454Z,55.30
2018-06-12T08:30:11.311Z,55.30
2018-06-12T08:32:39.055Z,55.20
2018-06-12T08:35:11.309Z,55.10
2018-06-12T08:37:39.105Z,55.10
2018-06-12T08:40:06.971Z,55.20
2018-06-12T08:42:34.767Z,55.10
2018-06-12T08:45:02.297Z,55.30
2018-06-12T08:47:29.850Z,55.00
2018-06-12T08:49:58.553Z,55.00
2018-06-12T08:52:26.078Z,55.00
2018-06-12T08:54:54.201Z,55.00
2018-06-12T08:57:21.808Z,55.00
2018-06-12T08:59:49.360Z,55.00
2018-06-12T09:02:16.898Z,55.00
2018-06-12T09:04:44.732Z,54.90
2018-06-12T09:07:12.498Z,55.00
2018-06-12T09:09:40.202Z,55.00
2018-06-12T09:12:08.000Z,55.00
2018-06-12T09:14:35.793Z,54.90
2018-06-12T09:17:03.567Z,55.40
2018-06-12T09:19:31.399Z,55.00
2018-06-12T09:21:59.136Z,54.90
2018-06-12T09:24:26.873Z,54.90
2018-06-12T09:26:54.653Z,54.80
2018-06-12T09:29:22.381Z,54.80
2018-06-12T09:34:17.186Z,54.80
2018-06-12T09:36:44.724Z,54.70
2018-06-12T09:39:12.255Z,54.90
2018-06-12T09:41:39.781Z,54.80
2018-06-12T09:44:07.320Z,54.90
2018-06-12T09:46:34.845Z,54.70
2018-06-12T09:49:02.411Z,54.80
2018-06-12T09:51:29.962Z,54.80
2018-06-12T09:53:57.490Z,54.90
2018-06-12T09:56:25.017Z,54.80
2018-06-12T10:01:21.238Z,54.80
2018-06-12T10:03:49.294Z,54.80
2018-06-12T10:06:16.821Z,55.20
2018-06-12T10:08:44.360Z,54.80
2018-06-12T10:11:11.901Z,54.70
2018-06-12T10:13:39.477Z,54.80
2018-06-12T10:16:07.089Z,54.80
2018-06-12T10:18:34.630Z,54.80
2018-06-12T10:21:02.181Z,54.80
2018-06-12T10:23:29.733Z,54.70
2018-06-12T10:25:57.269Z,54.70
2018-06-12T10:28:25.402Z,54.80
2018-06-12T10:30:52.999Z,54.80
2018-06-12T10:33:20.545Z,54.80
2018-06-12T10:38:15.364Z,54.80
2018-06-12T10:40:42.978Z,54.60
2018-06-12T10:43:10.540Z,54.60
2018-06-12T10:45:38.117Z,54.60
2018-06-12T10:48:05.683Z,54.70
2018-06-12T10:50:33.225Z,54.60
2018-06-12T10:53:00.984Z,54.60
2018-06-12T10:55:28.517Z,54.60
2018-06-12T10:57:56.306Z,54.60
2018-06-12T11:00:24.037Z,54.60
2018-06-12T11:02:51.748Z,54.50
2018-06-12T11:05:19.445Z,54.50
2018-06-12T11:07:47.185Z,54.60
2018-06-12T11:10:15.961Z,54.60
2018-06-12T11:12:43.689Z,54.50
2018-06-12T11:15:11.403Z,54.50
2018-06-12T11:17:39.101Z,54.60
2018-06-12T11:20:06.788Z,54.50
2018-06-12T11:22:34.576Z,54.60
2018-06-12T11:25:02.366Z,55.20
2018-06-12T11:27:30.129Z,54.60
2018-06-12T11:29:57.895Z,54.50
2018-06-12T11:32:25.581Z,54.40
2018-06-12T11:34:53.325Z,54.50
2018-06-12T11:37:21.056Z,54.50
2018-06-12T11:39:48.753Z,54.60
2018-06-12T11:42:16.533Z,54.50
2018-06-12T11:44:44.409Z,54.40
2018-06-12T11:47:12.262Z,54.50
2018-06-12T11:49:39.965Z,54.30
2018-06-12T11:52:07.719Z,54.40
2018-06-12T11:54:35.413Z,54.50
2018-06-12T11:57:03.234Z,54.40
2018-06-12T11:59:30.978Z,54.40
2018-06-12T12:01:58.760Z,54.40
2018-06-12T12:04:28.023Z,54.40
2018-06-12T12:06:55.581Z,54.30
2018-06-12T12:09:23.118Z,54.30
2018-06-12T12:11:50.657Z,54.30
2018-06-12T12:14:18.189Z,54.20
2018-06-12T12:16:45.736Z,54.20
2018-06-12T12:19:13.299Z,54.20
2018-06-12T12:21:40.820Z,54.10
2018-06-12T12:24:08.626Z,54.20
2018-06-12T12:26:36.170Z,54.20
2018-06-12T12:29:03.718Z,54.10
2018-06-12T12:31:31.266Z,54.00
2018-06-12T12:33:58.817Z,54.10
2018-06-12T12:36:26.380Z,54.00
2018-06-12T12:38:53.944Z,54.00
2018-06-12T12:41:21.486Z,54.00
2018-06-12T12:43:49.093Z,54.00
2018-06-12T12:46:16.640Z,54.10
2018-06-12T12:48:44.177Z,54.00
2018-06-12T12:51:11.722Z,54.00
2018-06-12T12:53:39.263Z,54.00
2018-06-12T12:56:06.833Z,54.00
2018-06-12T13:01:01.639Z,54.10
2018-06-12T13:03:29.185Z,54.90
2018-06-12T13:05:56.757Z,54.50
2018-06-12T13:08:28.218Z,54.10
2018-06-12T13:10:55.762Z,54.10
2018-06-12T13:13:23.318Z,54.20
2018-06-12T13:15:51.122Z,54.10
2018-06-12T13:18:18.760Z,54.00
2018-06-12T13:20:48.341Z,54.10
2018-06-12T13:23:17.995Z,53.80
2018-06-12T13:25:46.823Z,54.10
2018-06-12T13:28:14.390Z,54.00
2018-06-12T13:30:42.748Z,53.80
2018-06-12T13:33:10.290Z,53.90
2018-06-12T13:35:39.560Z,53.80
2018-06-12T13:40:44.490Z,54.10
2018-06-12T13:43:12.022Z,54.10
2018-06-12T13:45:39.609Z,54.10
2018-06-12T13:48:07.336Z,54.10
2018-06-12T13:50:38.293Z,54.10
2018-06-12T13:53:05.874Z,54.20
2018-06-12T13:55:34.293Z,54.10
2018-06-12T13:58:01.871Z,54.10
2018-06-12T14:00:39.545Z,54.10
2018-06-12T14:03:07.113Z,54.10
2018-06-12T14:05:34.657Z,54.10
2018-06-12T14:08:02.224Z,54.00
2018-06-12T14:10:29.753Z,54.00
2018-06-12T14:12:57.317Z,54.10
2018-06-12T14:15:24.917Z,54.00
2018-06-12T14:17:52.467Z,54.10
2018-06-12T14:20:20.023Z,54.00
2018-06-12T14:22:47.579Z,54.00
2018-06-12T14:25:15.156Z,54.00
2018-06-12T14:27:42.765Z,54.10
2018-06-12T14:32:37.601Z,54.20
2018-06-12T14:35:05.161Z,54.00
2018-06-12T14:37:32.704Z,54.00
2018-06-12T14:40:00.270Z,54.00
2018-06-12T14:42:27.820Z,54.00
2018-06-12T14:44:55.326Z,54.10
2018-06-12T14:47:22.845Z,54.20
2018-06-12T14:49:50.333Z,54.20
2018-06-12T14:52:25.365Z,54.30
2018-06-12T14:54:52.913Z,54.40
2018-06-12T14:57:20.531Z,54.30
2018-06-12T14:59:48.058Z,54.20
2018-06-12T15:02:15.570Z,54.40
2018-06-12T15:04:46.369Z,54.40
2018-06-12T15:07:14.018Z,54.20
2018-06-12T15:09:42.129Z,54.30
2018-06-12T15:12:09.794Z,54.30
2018-06-12T15:14:37.441Z,54.30
2018-06-12T15:17:05.175Z,54.30
2018-06-12T15:19:32.868Z,54.30
2018-06-12T15:22:00.500Z,54.40
2018-06-12T15:24:28.296Z,54.40
2018-06-12T15:26:56.064Z,55.00
2018-06-12T15:29:23.932Z,54.40
2018-06-12T15:31:51.600Z,54.40
2018-06-12T15:34:19.263Z,54.40
2018-06-12T15:36:47.718Z,54.40
2018-06-12T15:39:16.144Z,54.30
2018-06-12T15:41:45.204Z,53.80
2018-06-12T15:44:14.077Z,54.30
2018-06-12T15:46:43.519Z,54.40
2018-06-12T15:49:11.694Z,54.30
2018-06-12T15:51:39.414Z,54.20
2018-06-12T15:54:10.325Z,54.20
2018-06-12T15:56:42.959Z,54.30
2018-06-12T15:59:12.783Z,53.80
2018-06-12T16:01:44.489Z,54.20
2018-06-12T16:04:14.169Z,54.20
2018-06-12T16:06:45.420Z,54.20
2018-06-12T16:09:22.777Z,54.20
2018-06-12T16:11:50.555Z,54.30
2018-06-12T16:14:18.345Z,54.70
2018-06-12T16:16:45.954Z,54.30
2018-06-12T16:19:13.613Z,54.40
2018-06-12T16:21:41.191Z,54.30
2018-06-12T16:24:08.781Z,54.40
2018-06-12T16:26:36.449Z,54.50
2018-06-12T16:29:05.157Z,54.40
2018-06-12T16:31:33.696Z,54.50
2018-06-12T16:34:01.197Z,54.40
2018-06-12T16:36:28.730Z,54.50
2018-06-12T16:38:56.238Z,54.40
2018-06-12T16:41:23.818Z,54.40
2018-06-12T16:43:51.306Z,54.40
2018-06-12T16:46:18.833Z,54.30
2018-06-12T16:48:46.340Z,54.30
2018-06-12T16:51:13.853Z,54.30
2018-06-12T16:53:41.376Z,54.20
2018-06-12T16:56:13.627Z,54.40
2018-06-12T16:58:41.275Z,55.10
2018-06-12T17:01:08.809Z,54.40
2018-06-12T17:03:36.317Z,54.30
2018-06-12T17:06:03.820Z,54.40
2018-06-12T17:08:31.376Z,54.30
2018-06-12T17:10:58.872Z,54.30
2018-06-12T17:13:26.389Z,54.30
2018-06-12T17:15:53.891Z,54.40
2018-06-12T17:18:21.402Z,54.40
2018-06-12T17:20:48.924Z,54.30
2018-06-12T17:23:16.421Z,54.40
2018-06-12T17:25:43.968Z,54.40
2018-06-12T17:28:11.493Z,54.20
2018-06-12T17:30:39.166Z,54.20
2018-06-12T17:35:48.028Z,53.90
2018-06-12T17:38:23.679Z,54.00
2018-06-12T17:40:51.237Z,54.00
2018-06-12T17:43:19.766Z,54.00
2018-06-12T17:45:47.268Z,54.00
2018-06-12T17:48:14.844Z,54.00
2018-06-12T17:50:42.361Z,53.90
2018-06-12T17:53:09.856Z,54.00
2018-06-12T17:55:37.694Z,53.60
2018-06-12T17:58:05.359Z,53.40
2018-06-12T18:00:33.212Z,53.10
2018-06-12T18:03:00.959Z,53.10
2018-06-12T18:05:28.735Z,53.10
2018-06-12T18:07:56.719Z,53.30
2018-06-12T18:10:24.503Z,53.30
2018-06-12T18:12:52.494Z,53.50
2018-06-12T18:15:20.241Z,53.40
2018-06-12T18:17:47.761Z,54.00
2018-06-12T18:20:19.576Z,53.50
2018-06-12T18:22:47.092Z,53.20
2018-06-12T18:25:14.621Z,53.50
2018-06-12T18:27:42.133Z,53.50
2018-06-12T18:30:09.622Z,53.50
2018-06-12T18:32:37.108Z,53.50
2018-06-12T18:35:04.615Z,53.40
2018-06-12T18:37:32.329Z,53.60
2018-06-12T18:40:00.190Z,53.00
2018-06-12T18:42:28.313Z,53.00
2018-06-12T18:44:55.955Z,52.90
2018-06-12T18:47:24.503Z,52.90
2018-06-12T18:49:52.194Z,52.90
2018-06-12T18:52:19.726Z,52.80
2018-06-12T18:54:47.382Z,53.00
2018-06-12T18:57:16.067Z,52.90
2018-06-12T18:59:43.659Z,52.50
2018-06-12T19:02:11.179Z,52.80
2018-06-12T19:04:38.689Z,52.80
2018-06-12T19:07:06.263Z,52.40
2018-06-12T19:09:33.806Z,52.20
2018-06-12T19:12:01.338Z,52.40
2018-06-12T19:14:28.847Z,52.70
2018-06-12T19:16:56.358Z,52.70
2018-06-12T19:19:23.858Z,52.10
2018-06-12T19:24:40.633Z,51.60
2018-06-12T19:27:08.161Z,51.90
2018-06-12T19:29:36.794Z,52.80
2018-06-12T19:32:04.323Z,51.80
2018-06-12T19:34:31.844Z,51.70
2018-06-12T19:36:59.375Z,51.50
2018-06-12T19:39:27.342Z,51.50
2018-06-12T19:41:58.612Z,51.40
2018-06-12T19:44:26.526Z,51.60
2018-06-12T19:46:54.254Z,52.00
2018-06-12T19:49:21.835Z,52.50
2018-06-12T19:51:49.556Z,52.90
2018-06-12T19:54:17.095Z,53.30
2018-06-12T19:56:45.325Z,53.40
2018-06-12T19:59:12.825Z,53.50
2018-06-12T20:01:40.338Z,53.70
2018-06-12T20:04:07.889Z,53.80
2018-06-12T20:06:35.408Z,53.90
2018-06-12T20:09:03.053Z,54.20
2018-06-12T20:11:30.547Z,54.30
2018-06-12T20:14:01.841Z,54.20
2018-06-12T20:16:29.361Z,54.00
2018-06-12T20:18:56.857Z,54.30
2018-06-12T20:21:24.365Z,54.40
2018-06-12T20:23:51.852Z,54.40
2018-06-12T20:26:19.385Z,54.30
2018-06-12T20:28:46.889Z,54.10
2018-06-12T20:31:14.405Z,54.50
2018-06-12T20:33:41.915Z,54.50
2018-06-12T20:36:09.414Z,54.60
2018-06-12T20:38:36.889Z,54.50
2018-06-12T20:41:04.417Z,53.90
2018-06-12T20:43:31.942Z,53.50
2018-06-12T20:45:59.964Z,53.50
2018-06-12T20:48:27.509Z,52.80
2018-06-12T20:50:55.024Z,52.50
2018-06-12T20:53:22.547Z,53.20
2018-06-12T20:55:50.060Z,53.40
2018-06-12T20:58:17.600Z,53.00
2018-06-12T21:00:45.128Z,53.00
2018-06-12T21:03:12.625Z,53.90
2018-06-12T21:05:40.128Z,53.70
2018-06-12T21:08:07.614Z,53.90
2018-06-12T21:10:35.128Z,53.90
2018-06-12T21:13:02.625Z,54.20
2018-06-12T21:15:30.118Z,54.20
2018-06-12T21:20:24.822Z,54.20
2018-06-12T21:22:52.309Z,54.10
2018-06-12T21:25:19.812Z,54.20
2018-06-12T21:27:47.308Z,54.10
2018-06-12T21:30:14.787Z,54.20
2018-06-12T21:32:42.277Z,54.20
2018-06-12T21:35:09.773Z,54.60
2018-06-12T21:37:37.250Z,54.20
2018-06-12T21:40:10.720Z,54.20
2018-06-12T21:42:38.208Z,53.90
2018-06-12T21:45:05.697Z,53.60
2018-06-12T21:47:33.233Z,53.80
2018-06-12T21:50:00.746Z,54.40
2018-06-12T21:52:28.234Z,53.80
2018-06-12T21:54:55.733Z,53.30
2018-06-12T21:57:27.369Z,53.30
2018-06-12T21:59:54.866Z,53.00
2018-06-12T22:02:22.354Z,53.00
2018-06-12T22:04:49.910Z,52.20
2018-06-12T22:07:17.335Z,52.80
2018-06-12T22:09:44.813Z,53.00
2018-06-12T22:12:12.294Z,53.30
2018-06-12T22:14:39.788Z,53.40
2018-06-12T22:17:07.307Z,52.60
2018-06-12T22:19:34.801Z,52.10
2018-06-12T22:22:02.280Z,53.60
2018-06-12T22:24:29.757Z,53.00
2018-06-12T22:26:59.242Z,53.30
2018-06-12T22:29:26.752Z,53.00
2018-06-12T22:31:54.235Z,53.10
2018-06-12T22:34:21.718Z,53.00
2018-06-12T22:39:16.453Z,53.70
2018-06-12T22:41:43.933Z,53.40
2018-06-12T22:44:11.405Z,53.40
2018-06-12T22:46:38.884Z,53.00
2018-06-12T22:49:06.403Z,53.00
2018-06-12T22:51:33.908Z,52.70
2018-06-12T22:56:28.604Z,53.00
2018-06-12T22:58:56.101Z,53.10
2018-06-12T23:01:23.592Z,53.00
2018-06-12T23:03:51.074Z,53.00
2018-06-12T23:06:18.573Z,53.00
2018-06-12T23:08:46.062Z,53.40
2018-06-12T23:11:13.552Z,53.00
2018-06-12T23:13:41.068Z,53.00
2018-06-12T23:16:08.576Z,53.70
2018-06-12T23:18:36.068Z,53.30
2018-06-12T23:21:09.288Z,52.60
2018-06-12T23:23:36.773Z,53.00
2018-06-12T23:26:04.266Z,53.00
2018-06-12T23:28:31.769Z,53.60
2018-06-12T23:30:59.285Z,52.70
2018-06-12T23:33:26.780Z,52.50
2018-06-12T23:35:54.318Z,52.80
2018-06-12T23:38:21.815Z,52.80
2018-06-12T23:40:49.312Z,52.80
2018-06-12T23:43:16.808Z,52.80
2018-06-12T23:45:44.312Z,52.80
2018-06-12T23:48:11.845Z,52.50
2018-06-12T23:50:39.335Z,52.30
2018-06-12T23:53:06.832Z,52.00
2018-06-12T23:55:34.320Z,52.40
2018-06-12T23:58:01.833Z,52.50
